createdAt,value
2023-02-25T00:04:29.974Z,9.55
2023-02-25T00:09:32.741Z,7.25
2023-02-25T00:14:35.428Z,6.22
2023-02-25T00:19:38.167Z,8.60
2023-02-25T00:24:40.811Z,8.75
2023-02-25T00:29:43.685Z,10.23
2023-02-25T00:34:46.921Z,9.25
2023-02-25T00:39:49.651Z,8.63
2023-02-25T00:44:52.344Z,10.23
2023-02-25T00:49:54.984Z,10.13
2023-02-25T00:54:57.678Z,10.50
2023-02-25T01:00:00.505Z,11.80
2023-02-25T01:05:03.854Z,11.68
2023-02-25T01:10:08.864Z,12.45
2023-02-25T01:15:12.316Z,13.13
2023-02-25T01:20:20.168Z,18.30
2023-02-25T01:25:23.063Z,17.45
2023-02-25T01:30:25.854Z,15.55
2023-02-25T01:35:28.518Z,14.35
2023-02-25T01:40:31.307Z,15.55
2023-02-25T01:45:44.358Z,20.83
2023-02-25T01:50:52.908Z,13.65
2023-02-25T01:55:56.863Z,14.68
2023-02-25T02:00:59.692Z,15.95
2023-02-25T02:06:39.078Z,14.07
2023-02-25T02:11:43.289Z,16.00
2023-02-25T02:16:59.623Z,17.13
2023-02-25T02:22:35.711Z,15.45
2023-02-25T02:27:53.348Z,19.48
2023-02-25T02:33:10.513Z,19.27
2023-02-25T02:38:27.996Z,15.18
2023-02-25T02:43:41.802Z,19.48
2023-02-25T02:48:56.627Z,16.00
2023-02-25T02:54:07.486Z,17.85
2023-02-25T02:59:26.148Z,15.95
2023-02-25T03:04:31.794Z,23.65
2023-02-25T03:09:50.069Z,18.80
2023-02-25T03:14:53.068Z,17.02
2023-02-25T03:20:18.451Z,22.23
2023-02-25T03:25:29.781Z,23.17
2023-02-25T03:30:49.567Z,20.05
2023-02-25T03:35:55.481Z,18.77
2023-02-25T03:41:08.551Z,18.70
2023-02-25T03:46:16.046Z,18.88
2023-02-25T03:51:22.444Z,17.88
2023-02-25T03:56:26.020Z,15.85
2023-02-25T04:01:30.960Z,19.05
2023-02-25T04:06:33.828Z,23.23
2023-02-25T04:11:37.198Z,27.90
2023-02-25T04:16:40.112Z,17.60
2023-02-25T04:21:47.337Z,22.07
2023-02-25T04:26:50.048Z,20.70
2023-02-25T04:31:53.145Z,22.55
2023-02-25T04:36:56.042Z,21.15
2023-02-25T04:41:59.071Z,20.17
2023-02-25T04:47:01.837Z,20.67
2023-02-25T04:52:04.645Z,18.30
2023-02-25T04:57:08.292Z,16.83
2023-02-25T05:02:11.399Z,19.07
2023-02-25T05:07:14.073Z,15.52
2023-02-25T05:12:16.747Z,19.45
2023-02-25T05:17:19.567Z,19.00
2023-02-25T05:22:23.252Z,22.15
2023-02-25T05:27:26.106Z,21.70
2023-02-25T05:32:31.698Z,20.50
2023-02-25T05:37:34.811Z,20.23
2023-02-25T05:42:38.295Z,22.45
2023-02-25T05:47:41.003Z,19.08
2023-02-25T05:52:43.922Z,20.25
2023-02-25T05:57:46.591Z,22.08
2023-02-25T06:02:49.412Z,20.63
2023-02-25T06:07:52.204Z,18.23
2023-02-25T06:12:54.892Z,23.08
2023-02-25T06:17:57.686Z,22.35
2023-02-25T06:23:00.356Z,19.75
2023-02-25T06:28:04.022Z,19.58
2023-02-25T06:33:06.708Z,22.73
2023-02-25T06:38:09.701Z,20.10
2023-02-25T06:43:12.481Z,20.90
2023-02-25T06:48:15.383Z,19.60
2023-02-25T06:53:18.103Z,18.05
2023-02-25T06:58:20.852Z,20.08
2023-02-25T07:03:23.628Z,22.40
2023-02-25T07:08:26.369Z,20.70
2023-02-25T07:13:29.079Z,21.08
2023-02-25T07:18:31.655Z,20.00
2023-02-25T07:23:36.753Z,23.40
2023-02-25T07:28:40.175Z,19.95
2023-02-25T07:33:43.080Z,23.13
2023-02-25T07:38:47.187Z,20.23
2023-02-25T07:43:49.960Z,19.38
2023-02-25T07:48:54.971Z,19.75
2023-02-25T07:54:03.817Z,22.20
2023-02-25T07:59:06.548Z,19.15
2023-02-25T08:04:10.718Z,18.63
2023-02-25T08:09:14.231Z,25.83
2023-02-25T08:14:16.950Z,21.13
2023-02-25T08:19:19.659Z,21.10
2023-02-25T08:24:23.020Z,17.35
2023-02-25T08:29:26.196Z,22.15
2023-02-25T08:34:28.932Z,19.35
2023-02-25T08:39:31.784Z,19.60
2023-02-25T08:44:34.439Z,20.55
2023-02-25T08:49:39.350Z,19.63
2023-02-25T08:54:42.084Z,20.27
2023-02-25T08:59:44.710Z,21.73
2023-02-25T09:04:47.462Z,18.45
2023-02-25T09:09:50.181Z,18.63
2023-02-25T09:14:52.906Z,20.20
2023-02-25T09:19:55.816Z,16.90
2023-02-25T09:24:58.523Z,15.43
2023-02-25T09:30:01.437Z,21.60
2023-02-25T09:35:07.919Z,21.55
2023-02-25T09:40:11.874Z,24.63
2023-02-25T09:45:18.273Z,22.67
2023-02-25T09:50:27.707Z,20.70
2023-02-25T09:55:39.692Z,16.50
2023-02-25T10:01:06.458Z,21.23
2023-02-25T10:06:21.655Z,24.20
2023-02-25T10:11:36.480Z,24.70
2023-02-25T10:16:51.109Z,28.55
2023-02-25T10:22:02.855Z,23.33
2023-02-25T10:27:24.846Z,19.02
2023-02-25T10:32:31.493Z,23.02
2023-02-25T10:37:39.802Z,20.52
2023-02-25T10:42:47.628Z,23.65
2023-02-25T10:48:04.565Z,24.00
2023-02-25T10:53:18.026Z,25.23
2023-02-25T10:58:44.829Z,21.73
2023-02-25T11:03:47.662Z,24.80
2023-02-25T11:08:51.455Z,24.88
2023-02-25T11:14:03.133Z,21.92
2023-02-25T11:19:23.364Z,24.42
2023-02-25T11:24:35.522Z,25.23
2023-02-25T11:29:41.198Z,29.27
2023-02-25T11:34:50.533Z,26.70
2023-02-25T11:39:55.438Z,28.70
2023-02-25T11:45:03.599Z,27.02
2023-02-25T11:50:18.645Z,23.95
2023-02-25T11:55:42.781Z,24.77
2023-02-25T12:00:55.509Z,24.88
2023-02-25T12:06:13.523Z,27.50
2023-02-25T12:11:24.354Z,30.30
2023-02-25T12:16:46.719Z,30.83
2023-02-25T12:22:15.121Z,26.95
2023-02-25T12:27:34.428Z,29.33
2023-02-25T12:33:08.324Z,28.80
2023-02-25T12:38:52.244Z,28.25
2023-02-25T12:44:22.312Z,41.90
2023-02-25T12:49:43.043Z,36.22
2023-02-25T12:54:51.620Z,43.72
2023-02-25T13:00:10.693Z,26.55
2023-02-25T13:05:42.379Z,29.25
2023-02-25T13:11:08.340Z,23.45
2023-02-25T13:16:28.675Z,29.23
2023-02-25T13:21:43.745Z,26.25
2023-02-25T13:27:22.553Z,27.25
2023-02-25T13:32:26.957Z,25.17
2023-02-25T13:37:44.533Z,31.20
2023-02-25T13:43:12.163Z,31.33
2023-02-25T13:48:18.330Z,30.17
2023-02-25T13:53:36.174Z,33.25
2023-02-25T13:59:00.345Z,30.60
2023-02-25T14:04:05.872Z,28.23
2023-02-25T14:09:46.596Z,28.48
2023-02-25T14:15:20.473Z,32.85
2023-02-25T14:20:29.428Z,30.13
2023-02-25T14:25:56.469Z,27.83
2023-02-25T14:31:11.525Z,26.85
2023-02-25T14:36:37.458Z,29.83
2023-02-25T14:42:03.673Z,29.60
2023-02-25T14:47:19.732Z,25.98
2023-02-25T14:52:41.155Z,26.48
2023-02-25T14:58:09.014Z,29.42
2023-02-25T15:03:17.403Z,28.60
2023-02-25T15:08:51.431Z,21.45
2023-02-25T15:14:19.270Z,25.35
2023-02-25T15:20:00.369Z,31.02
2023-02-25T15:25:21.916Z,30.90
2023-02-25T15:30:27.335Z,33.42
2023-02-25T15:35:35.944Z,27.42
2023-02-25T15:40:45.409Z,29.95
2023-02-25T15:45:55.902Z,28.45
2023-02-25T15:51:00.899Z,23.58
2023-02-25T15:56:06.951Z,26.95
2023-02-25T16:01:39.859Z,29.38
2023-02-25T16:11:56.379Z,29.48
2023-02-25T16:17:24.170Z,24.40
2023-02-25T16:22:28.807Z,27.75
2023-02-25T16:27:43.662Z,28.75
2023-02-25T16:33:04.561Z,25.45
2023-02-25T16:38:16.033Z,27.80
2023-02-25T16:43:31.074Z,25.73
2023-02-25T16:49:11.749Z,30.60
2023-02-25T16:54:18.106Z,25.40
2023-02-25T16:59:22.722Z,27.73
2023-02-25T17:04:30.172Z,26.38
2023-02-25T17:09:32.990Z,22.70
2023-02-25T17:14:36.069Z,22.20
2023-02-25T17:19:38.902Z,25.33
2023-02-25T17:24:41.818Z,28.10
2023-02-25T17:29:46.142Z,26.48
2023-02-25T17:34:49.899Z,29.83
2023-02-25T17:39:52.757Z,29.17
2023-02-25T17:44:55.526Z,25.23
2023-02-25T17:50:00.533Z,29.85
2023-02-25T17:55:06.545Z,28.75
2023-02-25T18:00:36.244Z,25.42
2023-02-25T18:05:51.610Z,26.95
2023-02-25T18:11:16.301Z,27.10
2023-02-25T18:16:30.897Z,36.28
2023-02-25T18:21:40.308Z,31.33
2023-02-25T18:27:19.899Z,26.70
2023-02-25T18:32:25.118Z,31.70
2023-02-25T18:37:29.083Z,26.63
2023-02-25T18:47:34.302Z,32.70
2023-02-25T18:52:37.984Z,27.10
2023-02-25T18:57:40.754Z,27.00
2023-02-25T19:02:52.241Z,28.00
2023-02-25T19:07:55.401Z,22.23
2023-02-25T19:13:08.892Z,26.88
2023-02-25T19:18:15.958Z,30.75
2023-02-25T19:23:19.877Z,29.70
2023-02-25T19:28:22.533Z,29.13
2023-02-25T19:33:25.243Z,32.97
2023-02-25T19:38:28.047Z,29.20
2023-02-25T19:43:31.893Z,26.83
2023-02-25T19:48:34.736Z,26.58
2023-02-25T19:53:37.831Z,29.03
2023-02-25T19:58:40.584Z,18.73
2023-02-25T20:03:43.593Z,26.63
2023-02-25T20:08:52.711Z,27.63
2023-02-25T20:13:55.477Z,27.42
2023-02-25T20:18:58.362Z,30.60
2023-02-25T20:24:01.567Z,31.70
2023-02-25T20:29:04.973Z,29.10
2023-02-25T20:34:07.796Z,25.77
2023-02-25T20:39:25.858Z,32.60
2023-02-25T20:44:28.787Z,28.52
2023-02-25T20:49:31.763Z,30.08
2023-02-25T20:54:34.512Z,33.13
2023-02-25T20:59:37.239Z,26.50
2023-02-25T21:04:39.939Z,31.37
2023-02-25T21:09:42.705Z,21.07
2023-02-25T21:14:45.501Z,24.50
2023-02-25T21:19:48.147Z,29.77
2023-02-25T21:24:50.866Z,24.33
2023-02-25T21:29:53.626Z,28.63
2023-02-25T21:34:56.421Z,28.08
2023-02-25T21:39:59.127Z,31.43
2023-02-25T21:45:02.173Z,22.33
2023-02-25T21:50:06.906Z,22.58
2023-02-25T21:55:10.229Z,24.67
2023-02-25T22:00:14.663Z,29.67
2023-02-25T22:05:17.619Z,22.92
2023-02-25T22:10:21.372Z,28.07
2023-02-25T22:15:24.863Z,23.05
2023-02-25T22:20:27.573Z,30.47
2023-02-25T22:25:33.138Z,28.83
2023-02-25T22:30:35.853Z,25.70
2023-02-25T22:35:38.910Z,29.30
2023-02-25T22:40:42.631Z,28.70
2023-02-25T22:45:45.590Z,30.08
2023-02-25T22:50:50.973Z,27.57
2023-02-25T22:55:53.569Z,28.58
2023-02-25T23:00:56.500Z,24.70
2023-02-25T23:05:59.237Z,25.83
2023-02-25T23:11:31.667Z,22.83
2023-02-25T23:16:37.440Z,26.63
2023-02-25T23:21:40.318Z,19.75
2023-02-25T23:26:44.083Z,33.53
2023-02-25T23:31:48.764Z,24.83
2023-02-25T23:36:55.717Z,18.25
2023-02-25T23:41:58.454Z,28.77
2023-02-25T23:47:01.177Z,26.95
2023-02-25T23:52:04.322Z,30.33
2023-02-25T23:57:07.097Z,26.05
